| time (UTC) | temp F | wind direction | speed MPH | gust MPH | rain 1hr in | rain 24hr in | rain mn in | humidity % | barometer mb |
| 20260510141007 | 83 | 238 | 2.0 | 6.0 | 0.00 | 0.00 | 0.00 | 72 | 1014.4 |
| 20260510140005 | 82 | 227 | 2.0 | 9.0 | 0.00 | 0.00 | 0.00 | 71 | 1014.5 |
| 20260510135006 | 82 | 173 | 3.0 | 5.0 | 0.00 | 0.00 | 0.00 | 74 | 1014.6 |
| 20260510134006 | 81 | 177 | 1.0 | 3.0 | 0.00 | 0.00 | 0.00 | 78 | 1014.7 |
| 20260510133007 | 80 | 262 | 2.0 | 3.0 | 0.00 | 0.00 | 0.00 | 80 | 1014.8 |
| 20260510132008 | 79 | 269 | 3.0 | 5.0 | 0.00 | 0.00 | 0.00 | 81 | 1014.8 |
| 20260510130007 | 78 | 164 | 2.0 | 3.0 | 0.00 | 0.00 | 0.00 | 83 | 1014.6 |
| 20260510125005 | 76 | 207 | 1.0 | 3.0 | 0.00 | 0.00 | 0.00 | 80 | 1014.4 |
| 20260510124007 | 76 | 231 | 0.0 | 3.0 | 0.00 | 0.00 | 0.00 | 71 | 1014.6 |
| 20260510123007 | 75 | 280 | 1.0 | 3.0 | 0.00 | 0.00 | 0.00 | 67 | 1014.4 |
| 20260510122007 | 75 | 218 | 0.0 | 1.0 | 0.00 | 0.00 | 0.00 | 65 | 1014.0 |
| 20260510121006 | 75 | 213 | 0.0 | 2.0 | 0.00 | 0.00 | 0.00 | 65 | 1013.7 |
| 20260510120005 | 74 | 180 | 0.0 | 2.0 | 0.00 | 0.00 | 0.00 | 65 | 1013.4 |
| 20260510115006 | 74 | 177 | 1.0 | 2.0 | 0.00 | 0.00 | 0.00 | 65 | 1013.4 |
| 20260510114006 | 73 | 186 | 0.0 | 2.0 | 0.00 | 0.00 | 0.00 | 65 | 1013.2 |
| 20260510113007 | 73 | 169 | 1.0 | 2.0 | 0.00 | 0.00 | 0.00 | 66 | 1013.1 |
| 20260510112007 | 73 | 147 | 0.0 | 1.0 | 0.00 | 0.00 | 0.00 | 66 | 1013.1 |
| 20260510111006 | 73 | 148 | 1.0 | 2.0 | 0.00 | 0.00 | 0.00 | 66 | 1012.9 |
| 20260510110007 | 73 | 175 | 0.0 | 1.0 | 0.00 | 0.00 | 0.00 | 66 | 1012.9 |
| 20260510105006 | 73 | 176 | 0.0 | 1.0 | 0.00 | 0.00 | 0.00 | 66 | 1012.8 |
| 20260510104006 | 72 | 176 | 0.0 | 1.0 | 0.00 | 0.00 | 0.00 | 66 | 1012.7 |
| 20260510103007 | 72 | 184 | 0.0 | 2.0 | 0.00 | 0.00 | 0.00 | 66 | 1012.6 |
| 20260510100005 | 72 | 163 | 0.0 | 1.0 | 0.00 | 0.00 | 0.00 | 67 | 1012.2 |
| 20260510095006 | 72 | 164 | 1.0 | 2.0 | 0.00 | 0.00 | 0.00 | 67 | 1012.2 |
| 20260510094007 | 71 | 164 | 0.0 | 2.0 | 0.00 | 0.00 | 0.00 | 70 | 1012.0 |
| 20260510093006 | 71 | 200 | 1.0 | 2.0 | 0.00 | 0.00 | 0.00 | 70 | 1012.1 |
| 20260510092006 | 71 | 308 | 1.0 | 2.0 | 0.00 | 0.00 | 0.00 | 71 | 1012.1 |
| 20260510090006 | 71 | 308 | 0.0 | 1.0 | 0.00 | 0.00 | 0.00 | 72 | 1011.7 |
| 20260510085007 | 71 | 308 | 0.0 | 0.0 | 0.00 | 0.00 | 0.00 | 72 | 1011.6 |
| 20260510084006 | 72 | 308 | 0.0 | 1.0 | 0.00 | 0.00 | 0.00 | 72 | 1011.9 |
| 20260510083007 | 72 | 308 | 0.0 | 2.0 | 0.00 | 0.00 | 0.00 | 72 | 1011.8 |
| 20260510082006 | 72 | 308 | 0.0 | 0.0 | 0.00 | 0.00 | 0.00 | 72 | 1011.6 |
| 20260510081007 | 72 | 308 | 0.0 | 0.0 | 0.00 | 0.00 | 0.00 | 72 | 1011.7 |
| 20260510080005 | 73 | 308 | 0.0 | 1.0 | 0.00 | 0.00 | 0.00 | 72 | 1011.6 |
| 20260510075007 | 73 | 308 | 0.0 | 1.0 | 0.00 | 0.00 | 0.00 | 73 | 1011.7 |
| 20260510074007 | 73 | 308 | 0.0 | 1.0 | 0.00 | 0.00 | 0.00 | 73 | 1011.8 |
| 20260510073006 | 73 | 308 | 0.0 | 0.0 | 0.00 | 0.00 | 0.00 | 74 | 1011.8 |
| 20260510072005 | 73 | 308 | 0.0 | 2.0 | 0.00 | 0.00 | 0.00 | 75 | 1011.9 |
| 20260510070006 | 74 | 308 | 0.0 | 1.0 | 0.00 | 0.00 | 0.00 | 72 | 1011.9 |
| 20260510065008 | 74 | 308 | 0.0 | 1.0 | 0.00 | 0.00 | 0.00 | 73 | 1012.0 |
| 20260510064006 | 74 | 308 | 1.0 | 2.0 | 0.00 | 0.00 | 0.00 | 73 | 1012.1 |
| 20260510063007 | 74 | 308 | 1.0 | 2.0 | 0.00 | 0.00 | 0.00 | 75 | 1012.1 |
| 20260510062006 | 74 | 308 | 0.0 | 1.0 | 0.00 | 0.00 | 0.00 | 76 | 1012.1 |
| 20260510055007 | 74 | 288 | 2.0 | 3.0 | 0.00 | 0.00 | 0.00 | 75 | 1012.5 |
| 20260510054007 | 74 | 275 | 1.0 | 3.0 | 0.00 | 0.00 | 0.00 | 74 | 1012.6 |
| 20260510051006 | 74 | 266 | 1.0 | 2.0 | 0.00 | 0.00 | 0.00 | 79 | 1012.8 |
| 20260510050005 | 74 | 300 | 0.0 | 1.0 | 0.00 | 0.00 | 0.00 | 78 | 1012.7 |
| 20260510045006 | 74 | 300 | 1.0 | 2.0 | 0.00 | 0.00 | 0.00 | 81 | 1012.7 |
| 20260510044005 | 75 | 271 | 1.0 | 2.0 | 0.00 | 0.00 | 0.00 | 81 | 1012.7 |
| 20260510043007 | 75 | 271 | 1.0 | 2.0 | 0.00 | 0.00 | 0.00 | 81 | 1012.8 |
| 20260510042006 | 75 | 271 | 0.0 | 1.0 | 0.00 | 0.00 | 0.00 | 83 | 1012.8 |
| 20260510041006 | 75 | 271 | 1.0 | 3.0 | 0.00 | 0.00 | 0.00 | 83 | 1012.8 |
| 20260510040006 | 76 | 255 | 2.0 | 3.0 | 0.00 | 0.00 | 0.00 | 83 | 1012.8 |
| 20260510032006 | 77 | 317 | 2.0 | 3.0 | 0.00 | 0.00 | 0.00 | 83 | 1012.8 |
| 20260510031007 | 77 | 302 | 3.0 | 5.0 | 0.00 | 0.00 | 0.00 | 82 | 1012.6 |
| 20260510030007 | 77 | 322 | 3.0 | 7.0 | 0.00 | 0.00 | 0.00 | 82 | 1012.3 |
| 20260510023007 | 77 | 310 | 2.0 | 3.0 | 0.00 | 0.00 | 0.00 | 82 | 1012.3 |
| 20260510022007 | 77 | 317 | 1.0 | 2.0 | 0.00 | 0.00 | 0.00 | 83 | 1012.2 |
| 20260510021009 | 77 | 295 | 1.0 | 3.0 | 0.00 | 0.00 | 0.00 | 83 | 1012.4 |
| 20260510020005 | 77 | 275 | 1.0 | 2.0 | 0.00 | 0.00 | 0.00 | 83 | 1012.2 |
| 20260510015005 | 77 | 30 | 0.0 | 3.0 | 0.00 | 0.00 | 0.00 | 83 | 1012.2 |
| 20260510014006 | 77 | 71 | 1.0 | 3.0 | 0.00 | 0.00 | 0.00 | 82 | 1012.3 |
| 20260510013005 | 78 | 154 | 1.0 | 5.0 | 0.00 | 0.00 | 0.00 | 81 | 1012.4 |
| 20260510012007 | 78 | 135 | 1.0 | 3.0 | 0.00 | 0.00 | 0.00 | 79 | 1012.5 |
| 20260510011005 | 79 | 172 | 2.0 | 7.0 | 0.00 | 0.00 | 0.00 | 78 | 1012.0 |
| 20260510010005 | 79 | 77 | 2.0 | 3.0 | 0.00 | 0.00 | 0.00 | 76 | 1010.9 |
| 20260510005007 | 80 | 16 | 1.0 | 5.0 | 0.00 | 0.00 | 0.00 | 76 | 1010.7 |
| 20260510004007 | 80 | 335 | 3.0 | 9.0 | 0.00 | 0.00 | 0.00 | 75 | 1010.6 |
| 20260510003007 | 80 | 341 | 6.0 | 13.0 | 0.00 | 0.00 | 0.00 | 74 | 1010.5 |
| 20260510002006 | 81 | 0 | 4.0 | 12.0 | 0.00 | 0.00 | 0.00 | 71 | 1010.4 |
| 20260510001006 | 83 | 339 | 5.0 | 12.0 | 0.00 | 0.00 | 0.00 | 67 | 1010.5 |
| 20260510000005 | 84 | 340 | 6.0 | 13.0 | 0.00 | 0.00 | 0.00 | 63 | 1010.4 |
| 20260509235006 | 85 | 314 | 5.0 | 12.0 | 0.00 | 0.00 | 0.00 | 61 | 1010.2 |
| 20260509234006 | 86 | 286 | 2.0 | 5.0 | 0.00 | 0.00 | 0.00 | 69 | 1009.7 |
| 20260509233005 | 86 | 104 | 2.0 | 6.0 | 0.00 | 0.00 | 0.00 | 68 | 1009.2 |
| 20260509232006 | 86 | 102 | 3.0 | 9.0 | 0.00 | 0.00 | 0.00 | 67 | 1009.1 |
| 20260509231006 | 87 | 110 | 2.0 | 6.0 | 0.00 | 0.00 | 0.00 | 67 | 1008.8 |
| 20260509230005 | 89 | 102 | 5.0 | 7.0 | 0.00 | 0.00 | 0.00 | 64 | 1008.9 |
| 20260509225005 | 91 | 103 | 5.0 | 12.0 | 0.00 | 0.00 | 0.00 | 59 | 1008.8 |
| 20260509224005 | 93 | 167 | 2.0 | 6.0 | 0.00 | 0.00 | 0.00 | 44 | 1008.7 |
| 20260509223005 | 93 | 196 | 3.0 | 6.0 | 0.00 | 0.00 | 0.00 | 41 | 1008.7 |
| 20260509222006 | 93 | 233 | 1.0 | 7.0 | 0.00 | 0.00 | 0.00 | 43 | 1008.8 |
| 20260509221005 | 94 | 178 | 2.0 | 5.0 | 0.00 | 0.00 | 0.00 | 41 | 1008.7 |
| 20260509220006 | 94 | 157 | 2.0 | 6.0 | 0.00 | 0.00 | 0.00 | 42 | 1008.8 |
| 20260509215007 | 94 | 175 | 3.0 | 6.0 | 0.00 | 0.00 | 0.00 | 40 | 1008.8 |
| 20260509214006 | 95 | 144 | 1.0 | 7.0 | 0.00 | 0.00 | 0.00 | 41 | 1008.7 |
| 20260509213007 | 95 | 199 | 4.0 | 10.0 | 0.00 | 0.00 | 0.00 | 40 | 1008.9 |
| 20260509212006 | 94 | 223 | 3.0 | 8.0 | 0.00 | 0.00 | 0.00 | 39 | 1008.7 |
| 20260509211007 | 94 | 148 | 2.0 | 7.0 | 0.00 | 0.00 | 0.00 | 42 | 1008.9 |
| 20260509205007 | 94 | 171 | 4.0 | 9.0 | 0.00 | 0.00 | 0.00 | 40 | 1008.9 |
| 20260509204006 | 94 | 206 | 5.0 | 8.0 | 0.00 | 0.00 | 0.00 | 39 | 1009.0 |
| 20260509203006 | 94 | 136 | 4.0 | 10.0 | 0.00 | 0.00 | 0.00 | 40 | 1009.1 |
| 20260509202006 | 94 | 202 | 3.0 | 12.0 | 0.00 | 0.00 | 0.00 | 40 | 1009.1 |
| 20260509201006 | 94 | 134 | 3.0 | 10.0 | 0.00 | 0.00 | 0.00 | 36 | 1009.3 |
| 20260509195006 | 94 | 180 | 4.0 | 10.0 | 0.00 | 0.00 | 0.00 | 39 | 1009.5 |
| 20260509194006 | 94 | 218 | 3.0 | 12.0 | 0.00 | 0.00 | 0.00 | 39 | 1009.4 |
| 20260509193006 | 94 | 210 | 3.0 | 7.0 | 0.00 | 0.00 | 0.00 | 39 | 1009.6 |
| 20260509192006 | 94 | 162 | 3.0 | 14.0 | 0.00 | 0.00 | 0.00 | 41 | 1009.6 |
| 20260509191005 | 95 | 218 | 5.0 | 14.0 | 0.00 | 0.00 | 0.00 | 40 | 1010.0 |
| 20260509190007 | 95 | 199 | 2.0 | 9.0 | 0.00 | 0.00 | 0.00 | 40 | 1010.1 |
| 20260509185006 | 94 | 268 | 3.0 | 12.0 | 0.00 | 0.00 | 0.00 | 42 | 1010.2 |
| 20260509182006 | 93 | 189 | 5.0 | 13.0 | 0.00 | 0.00 | 0.00 | 43 | 1010.4 |
| 20260509181007 | 93 | 199 | 5.0 | 13.0 | 0.00 | 0.00 | 0.00 | 44 | 1010.4 |
| 20260509180005 | 93 | 138 | 2.0 | 12.0 | 0.00 | 0.00 | 0.00 | 51 | 1010.6 |
| 20260509174005 | 92 | 196 | 4.0 | 12.0 | 0.00 | 0.00 | 0.00 | 47 | 1010.7 |
| 20260509173006 | 92 | 204 | 5.0 | 14.0 | 0.00 | 0.00 | 0.00 | 45 | 1010.8 |
| 20260509172005 | 92 | 170 | 4.0 | 13.0 | 0.00 | 0.00 | 0.00 | 49 | 1010.9 |
| 20260509171006 | 91 | 171 | 3.0 | 10.0 | 0.00 | 0.00 | 0.00 | 47 | 1010.9 |
| 20260509170006 | 92 | 150 | 5.0 | 12.0 | 0.00 | 0.00 | 0.00 | 47 | 1011.0 |
| 20260509165007 | 91 | 198 | 3.0 | 13.0 | 0.00 | 0.00 | 0.00 | 51 | 1011.0 |
| 20260509164006 | 91 | 200 | 3.0 | 12.0 | 0.00 | 0.00 | 0.00 | 52 | 1011.2 |
| 20260509163006 | 90 | 226 | 5.0 | 14.0 | 0.00 | 0.00 | 0.00 | 51 | 1011.4 |
| 20260509155007 | 89 | 248 | 4.0 | 12.0 | 0.00 | 0.00 | 0.00 | 56 | 1011.7 |
| 20260509153006 | 87 | 154 | 5.0 | 14.0 | 0.00 | 0.00 | 0.00 | 60 | 1012.0 |
| 20260509152006 | 87 | 240 | 5.0 | 12.0 | 0.00 | 0.00 | 0.00 | 62 | 1012.2 |
| 20260509151006 | 86 | 224 | 7.0 | 13.0 | 0.00 | 0.00 | 0.00 | 63 | 1012.3 |
| 20260509150005 | 87 | 155 | 4.0 | 14.0 | 0.00 | 0.00 | 0.00 | 63 | 1012.2 |
| 20260509145007 | 86 | 150 | 4.0 | 12.0 | 0.00 | 0.00 | 0.00 | 67 | 1012.2 |
| 20260509144007 | 86 | 201 | 3.0 | 9.0 | 0.00 | 0.00 | 0.00 | 63 | 1012.2 |
| 20260509143006 | 85 | 206 | 5.0 | 10.0 | 0.00 | 0.00 | 0.00 | 65 | 1012.2 |
| 20260509142006 | 85 | 171 | 3.0 | 7.0 | 0.00 | 0.00 | 0.00 | 67 | 1012.2 |